PWSweather.com
Personal Weather Stations
Station Observations
LUKAS
Viterbo, MartaIT 01010

ViterboMartaIT 01010

Lat: 42.5370989, Lon: 11.9204865

Elevation: 896

Station Type: La Crosse WS 2305

http://www.meteomarta.altervista.org/

High Low Average
Temperature 56.3°F13.5°C 45.7°F7.6°C 50.6°F10.3°C
Dew Point 51.6°F10.9°C 41.1°F5.1°C 46.8°F8.2°C
Winds 17.9 mph 28.8 kmh Calm Calm 4.0 mph S6.4 kmh S
Wind Gusts 20.4 mph32.8 kmh -- 8.0 mph12.9 kmh
Humidity 95% 75% 87%
Pressure 30.05 in1017.6 mb 29.76 in1007.8 mb -
Precipitation 0.02 in0.5 mm - -
Hour Temp Dew Point Humidity Winds Wind Gusts Pressure Precip Precip Rate Daily Precip Total
12:00 AM 49.1°F9.5°C 46.9°F8.3°C 92% 1.3 mph SW2.1 kmh SW 2.5 mph4.0 kmh 30.05 in1017.6 mb 0.00 in0.0 mm 0.00 in0.0 mm 0.00 in0.0 mm
12:15 AM 49.1°F9.5°C 46.9°F8.3°C 92% 2.0 mph SW3.2 kmh SW 2.9 mph4.7 kmh 30.04 in1017.3 mb 0.00 in0.0 mm 0.00 in0.0 mm 0.00 in0.0 mm
12:30 AM 48.9°F9.4°C 46.7°F8.2°C 92% Calm Calm 3.8 mph6.1 kmh 30.04 in1017.3 mb 0.00 in0.0 mm 0.00 in0.0 mm 0.00 in0.0 mm
12:45 AM 48.7°F9.3°C 46.5°F8.1°C 92% Calm Calm 3.1 mph5.0 kmh 30.03 in1016.9 mb 0.00 in0.0 mm 0.00 in0.0 mm 0.00 in0.0 mm
01:00 AM 48.9°F9.4°C 46.7°F8.2°C 92% Calm Calm 4.3 mph6.9 kmh 30.03 in1016.9 mb 0.00 in0.0 mm 0.00 in0.0 mm 0.00 in0.0 mm
01:15 AM 49.3°F9.6°C 47.0°F8.3°C 92% Calm Calm 5.8 mph9.3 kmh 30.02 in1016.6 mb 0.00 in0.0 mm 0.00 in0.0 mm 0.00 in0.0 mm
01:30 AM 49.1°F9.5°C 47.1°F8.4°C 93% 3.6 mph SSE5.8 kmh SSE 7.2 mph11.6 kmh 30.02 in1016.6 mb 0.00 in0.0 mm 0.00 in0.0 mm 0.00 in0.0 mm
01:45 AM 49.3°F9.6°C 47.3°F8.5°C 93% 4.3 mph ESE6.9 kmh ESE 6.9 mph11.1 kmh 30.02 in1016.6 mb 0.00 in0.0 mm 0.00 in0.0 mm 0.00 in0.0 mm
02:00 AM 49.6°F9.8°C 47.6°F8.7°C 93% 4.7 mph S7.6 kmh S 7.8 mph12.6 kmh 30.02 in1016.6 mb 0.00 in0.0 mm 0.00 in0.0 mm 0.00 in0.0 mm
02:15 AM 49.8°F9.9°C 47.8°F8.8°C 93% 2.2 mph S3.5 kmh S 6.7 mph10.8 kmh 30.01 in1016.3 mb 0.00 in0.0 mm 0.00 in0.0 mm 0.00 in0.0 mm
02:30 AM 49.6°F9.8°C 47.6°F8.7°C 93% Calm Calm 5.8 mph9.3 kmh 30.01 in1016.3 mb 0.00 in0.0 mm 0.00 in0.0 mm 0.00 in0.0 mm
02:45 AM 49.3°F9.6°C 47.3°F8.5°C 93% 2.0 mph SSW3.2 kmh SSW 6.9 mph11.1 kmh 30.00 in1015.9 mb 0.00 in0.0 mm 0.00 in0.0 mm 0.00 in0.0 mm
03:00 AM 48.9°F9.4°C 47.0°F8.3°C 93% Calm Calm 5.1 mph8.2 kmh 30.00 in1015.9 mb 0.00 in0.0 mm 0.00 in0.0 mm 0.00 in0.0 mm
03:15 AM 48.7°F9.3°C 46.8°F8.2°C 93% 4.0 mph S6.4 kmh S 6.0 mph9.7 kmh 29.99 in1015.6 mb 0.00 in0.0 mm 0.00 in0.0 mm 0.00 in0.0 mm
03:30 AM 48.7°F9.3°C 46.8°F8.2°C 93% 3.4 mph WSW5.5 kmh WSW 8.1 mph13.0 kmh 29.98 in1015.2 mb 0.00 in0.0 mm 0.00 in0.0 mm 0.00 in0.0 mm
03:45 AM 48.6°F9.2°C 46.9°F8.3°C 94% 3.6 mph SW5.8 kmh SW 5.6 mph9.0 kmh 29.98 in1015.2 mb 0.00 in0.0 mm 0.00 in0.0 mm 0.00 in0.0 mm
04:00 AM 48.6°F9.2°C 46.9°F8.3°C 94% 2.9 mph S4.7 kmh S 6.9 mph11.1 kmh 29.97 in1014.9 mb 0.00 in0.0 mm 0.00 in0.0 mm 0.00 in0.0 mm
04:15 AM 48.4°F9.1°C 46.7°F8.2°C 94% 4.3 mph SW6.9 kmh SW 6.9 mph11.1 kmh 29.97 in1014.9 mb 0.00 in0.0 mm 0.00 in0.0 mm 0.00 in0.0 mm
04:30 AM 48.2°F9.0°C 46.6°F8.1°C 94% 4.3 mph ESE6.9 kmh ESE 6.3 mph10.1 kmh 29.97 in1014.9 mb 0.00 in0.0 mm 0.00 in0.0 mm 0.00 in0.0 mm
04:45 AM 48.0°F8.9°C 46.4°F8.0°C 94% 2.7 mph WSW4.3 kmh WSW 3.8 mph6.1 kmh 29.97 in1014.9 mb 0.00 in0.0 mm 0.00 in0.0 mm 0.00 in0.0 mm
05:00 AM 47.8°F8.8°C 46.2°F7.9°C 94% Calm Calm 4.9 mph7.9 kmh 29.95 in1014.2 mb 0.00 in0.0 mm 0.00 in0.0 mm 0.00 in0.0 mm
05:15 AM 47.1°F8.4°C 45.5°F7.5°C 94% Calm Calm -- 29.95 in1014.2 mb 0.02 in0.5 mm 0.08 in2.0 mm 0.02 in0.5 mm
05:30 AM 47.5°F8.6°C 45.9°F7.7°C 94% 1.3 mph SE2.1 kmh SE 2.9 mph4.7 kmh 29.94 in1013.9 mb 0.02 in0.5 mm 0.00 in0.0 mm 0.02 in0.5 mm
05:45 AM 47.8°F8.8°C 46.2°F7.9°C 94% Calm Calm 2.5 mph4.0 kmh 29.93 in1013.5 mb 0.02 in0.5 mm 0.00 in0.0 mm 0.02 in0.5 mm
06:00 AM 46.9°F8.3°C 45.3°F7.4°C 94% Calm Calm 3.6 mph5.8 kmh 29.93 in1013.5 mb 0.02 in0.5 mm 0.00 in0.0 mm 0.02 in0.5 mm
06:15 AM 47.3°F8.5°C 45.7°F7.6°C 94% 2.2 mph SW3.5 kmh SW 5.4 mph8.7 kmh 29.92 in1013.2 mb 0.00 in0.0 mm 0.00 in0.0 mm 0.02 in0.5 mm
06:30 AM 47.5°F8.6°C 45.9°F7.7°C 94% 3.1 mph SW5.0 kmh SW 6.0 mph9.7 kmh 29.92 in1013.2 mb 0.00 in0.0 mm 0.00 in0.0 mm 0.02 in0.5 mm
06:45 AM 47.5°F8.6°C 45.9°F7.7°C 94% 2.7 mph SW4.3 kmh SW 6.3 mph10.1 kmh 29.92 in1013.2 mb 0.00 in0.0 mm 0.00 in0.0 mm 0.02 in0.5 mm
07:00 AM 47.5°F8.6°C 45.9°F7.7°C 94% 1.6 mph SW2.6 kmh SW 5.4 mph8.7 kmh 29.92 in1013.2 mb 0.00 in0.0 mm 0.00 in0.0 mm 0.02 in0.5 mm
07:15 AM 47.3°F8.5°C 45.7°F7.6°C 94% 0.7 mph S1.1 kmh S 5.8 mph9.3 kmh 29.91 in1012.9 mb 0.00 in0.0 mm 0.00 in0.0 mm 0.02 in0.5 mm
07:30 AM 47.3°F8.5°C 45.7°F7.6°C 94% Calm Calm 3.1 mph5.0 kmh 29.91 in1012.9 mb 0.00 in0.0 mm 0.00 in0.0 mm 0.02 in0.5 mm
07:45 AM 47.3°F8.5°C 45.7°F7.6°C 94% Calm Calm 2.2 mph3.5 kmh 29.91 in1012.9 mb 0.00 in0.0 mm 0.00 in0.0 mm 0.02 in0.5 mm
08:00 AM 47.3°F8.5°C 45.7°F7.6°C 94% Calm Calm -- 29.92 in1013.2 mb 0.00 in0.0 mm 0.00 in0.0 mm 0.02 in0.5 mm
08:15 AM 48.6°F9.2°C 47.2°F8.4°C 95% Calm Calm -- 29.91 in1012.9 mb 0.00 in0.0 mm 0.00 in0.0 mm 0.02 in0.5 mm
08:30 AM 48.9°F9.4°C 47.5°F8.6°C 95% 3.1 mph SSW5.0 kmh SSW 4.5 mph7.2 kmh 29.89 in1012.2 mb 0.00 in0.0 mm 0.00 in0.0 mm 0.02 in0.5 mm
08:45 AM 50.2°F10.1°C 48.7°F9.3°C 95% 1.8 mph N2.9 kmh N 13.0 mph20.9 kmh 29.89 in1012.2 mb 0.00 in0.0 mm 0.00 in0.0 mm 0.02 in0.5 mm
09:00 AM 50.7°F10.4°C 49.3°F9.6°C 95% 13.0 mph NNE20.9 kmh NNE 14.3 mph23.0 kmh 29.89 in1012.2 mb 0.00 in0.0 mm 0.00 in0.0 mm 0.02 in0.5 mm
09:15 AM 51.1°F10.6°C 49.4°F9.7°C 94% 3.1 mph NNE5.0 kmh NNE 11.0 mph17.7 kmh 29.89 in1012.2 mb 0.00 in0.0 mm 0.00 in0.0 mm 0.02 in0.5 mm
09:30 AM 51.6°F10.9°C 49.6°F9.8°C 93% 4.0 mph NNE6.4 kmh NNE 14.1 mph22.7 kmh 29.88 in1011.9 mb 0.00 in0.0 mm 0.00 in0.0 mm 0.02 in0.5 mm
09:45 AM 52.9°F11.6°C 50.6°F10.3°C 92% 11.0 mph N17.7 kmh N 17.4 mph28.0 kmh 29.88 in1011.9 mb 0.00 in0.0 mm 0.00 in0.0 mm 0.02 in0.5 mm
10:00 AM 53.6°F12.0°C 50.4°F10.2°C 89% 17.9 mph NNE28.8 kmh NNE 19.2 mph30.9 kmh 29.89 in1012.2 mb 0.00 in0.0 mm 0.00 in0.0 mm 0.02 in0.5 mm
10:15 AM 53.4°F11.9°C 50.2°F10.1°C 89% 7.6 mph NNE12.2 kmh NNE 17.4 mph28.0 kmh 29.89 in1012.2 mb 0.00 in0.0 mm 0.00 in0.0 mm 0.02 in0.5 mm
10:30 AM 53.2°F11.8°C 49.7°F9.8°C 88% 14.1 mph NNE22.7 kmh NNE 19.7 mph31.7 kmh 29.89 in1012.2 mb 0.00 in0.0 mm 0.00 in0.0 mm 0.02 in0.5 mm
10:45 AM 53.2°F11.8°C 50.1°F10.1°C 89% 12.8 mph NNE20.6 kmh NNE 17.2 mph27.7 kmh 29.89 in1012.2 mb 0.00 in0.0 mm 0.00 in0.0 mm 0.02 in0.5 mm
11:00 AM 53.4°F11.9°C 50.2°F10.1°C 89% 9.6 mph NNE15.4 kmh NNE 16.8 mph27.0 kmh 29.88 in1011.9 mb 0.00 in0.0 mm 0.00 in0.0 mm 0.02 in0.5 mm
11:15 AM 53.8°F12.1°C 50.6°F10.3°C 89% 6.9 mph NNE11.1 kmh NNE 14.3 mph23.0 kmh 29.87 in1011.5 mb 0.00 in0.0 mm 0.00 in0.0 mm 0.02 in0.5 mm
11:30 AM 53.8°F12.1°C 50.3°F10.2°C 88% 10.1 mph NE16.3 kmh NE 14.1 mph22.7 kmh 29.86 in1011.2 mb 0.00 in0.0 mm 0.00 in0.0 mm 0.02 in0.5 mm
11:45 AM 54.1°F12.3°C 50.3°F10.2°C 87% 8.9 mph NE14.3 kmh NE 19.0 mph30.6 kmh 29.85 in1010.8 mb 0.00 in0.0 mm 0.00 in0.0 mm 0.02 in0.5 mm
12:00 PM 54.3°F12.4°C 50.5°F10.3°C 87% 5.4 mph NE8.7 kmh NE 13.0 mph20.9 kmh 29.85 in1010.8 mb 0.00 in0.0 mm 0.00 in0.0 mm 0.02 in0.5 mm
12:15 PM 54.7°F12.6°C 50.2°F10.1°C 85% 10.5 mph SW16.9 kmh SW 18.3 mph29.5 kmh 29.84 in1010.5 mb 0.00 in0.0 mm 0.00 in0.0 mm 0.02 in0.5 mm
12:30 PM 54.9°F12.7°C 50.4°F10.2°C 85% 8.1 mph SW13.0 kmh SW 15.0 mph24.1 kmh 29.83 in1010.2 mb 0.00 in0.0 mm 0.00 in0.0 mm 0.02 in0.5 mm
12:45 PM 55.6°F13.1°C 50.8°F10.4°C 84% 5.8 mph SW9.3 kmh SW 16.6 mph26.7 kmh 29.82 in1009.8 mb 0.00 in0.0 mm 0.00 in0.0 mm 0.02 in0.5 mm
01:00 PM 56.1°F13.4°C 50.6°F10.3°C 82% 14.1 mph SW22.7 kmh SW 15.9 mph25.6 kmh 29.81 in1009.5 mb 0.00 in0.0 mm 0.00 in0.0 mm 0.02 in0.5 mm
01:15 PM 56.3°F13.5°C 50.2°F10.1°C 80% 13.9 mph SSW22.4 kmh SSW 18.1 mph29.1 kmh 29.81 in1009.5 mb 0.00 in0.0 mm 0.00 in0.0 mm 0.02 in0.5 mm
01:30 PM 55.8°F13.2°C 49.6°F9.8°C 80% 15.2 mph SW24.5 kmh SW 18.6 mph29.9 kmh 29.80 in1009.1 mb 0.00 in0.0 mm 0.00 in0.0 mm 0.02 in0.5 mm
01:45 PM 56.1°F13.4°C 50.0°F10.0°C 80% 4.0 mph SW6.4 kmh SW 20.4 mph32.8 kmh 29.80 in1009.1 mb 0.00 in0.0 mm 0.00 in0.0 mm 0.02 in0.5 mm
02:00 PM 55.8°F13.2°C 49.6°F9.8°C 80% 3.8 mph SSW6.1 kmh SSW 14.3 mph23.0 kmh 29.80 in1009.1 mb 0.00 in0.0 mm 0.00 in0.0 mm 0.02 in0.5 mm
02:15 PM 55.8°F13.2°C 50.3°F10.2°C 82% 6.0 mph SW9.7 kmh SW 13.2 mph21.2 kmh 29.79 in1008.8 mb 0.00 in0.0 mm 0.00 in0.0 mm 0.02 in0.5 mm
02:30 PM 55.9°F13.3°C 50.5°F10.3°C 82% 3.6 mph SW5.8 kmh SW 10.5 mph16.9 kmh 29.78 in1008.5 mb 0.00 in0.0 mm 0.00 in0.0 mm 0.02 in0.5 mm
02:45 PM 55.8°F13.2°C 50.6°F10.3°C 83% 5.8 mph SW9.3 kmh SW 11.4 mph18.3 kmh 29.77 in1008.1 mb 0.00 in0.0 mm 0.00 in0.0 mm 0.02 in0.5 mm
03:00 PM 55.2°F12.9°C 50.4°F10.2°C 84% Calm Calm 9.2 mph14.8 kmh 29.77 in1008.1 mb 0.00 in0.0 mm 0.00 in0.0 mm 0.02 in0.5 mm
03:15 PM 55.6°F13.1°C 51.1°F10.6°C 85% 3.4 mph SW5.5 kmh SW 5.8 mph9.3 kmh 29.78 in1008.5 mb 0.00 in0.0 mm 0.00 in0.0 mm 0.02 in0.5 mm
03:30 PM 55.8°F13.2°C 51.6°F10.9°C 86% 2.7 mph SSW4.3 kmh SSW 6.7 mph10.8 kmh 29.77 in1008.1 mb 0.00 in0.0 mm 0.00 in0.0 mm 0.02 in0.5 mm
03:45 PM 55.6°F13.1°C 51.4°F10.8°C 86% 2.7 mph SW4.3 kmh SW 10.7 mph17.2 kmh 29.78 in1008.5 mb 0.00 in0.0 mm 0.00 in0.0 mm 0.02 in0.5 mm
04:00 PM 55.0°F12.8°C 47.2°F8.4°C 75% Calm Calm 16.1 mph25.9 kmh 29.78 in1008.5 mb 0.00 in0.0 mm 0.00 in0.0 mm 0.02 in0.5 mm
04:15 PM 54.3°F12.4°C 46.5°F8.1°C 75% Calm Calm 4.5 mph7.2 kmh 29.78 in1008.5 mb 0.00 in0.0 mm 0.00 in0.0 mm 0.02 in0.5 mm
04:30 PM 53.4°F11.9°C 45.7°F7.6°C 75% 2.0 mph SSW3.2 kmh SSW 4.9 mph7.9 kmh 29.77 in1008.1 mb 0.00 in0.0 mm 0.00 in0.0 mm 0.02 in0.5 mm
04:45 PM 52.5°F11.4°C 44.8°F7.1°C 75% Calm Calm 4.9 mph7.9 kmh 29.77 in1008.1 mb 0.00 in0.0 mm 0.00 in0.0 mm 0.02 in0.5 mm
05:00 PM 51.6°F10.9°C 44.3°F6.8°C 76% 8.7 mph SW14.0 kmh SW 12.3 mph19.8 kmh 29.76 in1007.8 mb 0.00 in0.0 mm 0.00 in0.0 mm 0.02 in0.5 mm
05:15 PM 51.8°F11.0°C 44.5°F6.9°C 76% 3.1 mph SSW5.0 kmh SSW 4.7 mph7.6 kmh 29.77 in1008.1 mb 0.00 in0.0 mm 0.00 in0.0 mm 0.02 in0.5 mm
05:30 PM 51.4°F10.8°C 44.5°F6.9°C 77% Calm Calm 4.3 mph6.9 kmh 29.78 in1008.5 mb 0.00 in0.0 mm 0.00 in0.0 mm 0.02 in0.5 mm
05:45 PM 50.7°F10.4°C 44.1°F6.7°C 78% Calm Calm 3.1 mph5.0 kmh 29.78 in1008.5 mb 0.00 in0.0 mm 0.00 in0.0 mm 0.02 in0.5 mm
06:00 PM 51.4°F10.8°C 45.2°F7.3°C 79% 1.8 mph SSW2.9 kmh SSW 8.9 mph14.3 kmh 29.78 in1008.5 mb 0.00 in0.0 mm 0.00 in0.0 mm 0.02 in0.5 mm
06:15 PM 50.9°F10.5°C 44.6°F7.0°C 79% Calm Calm 3.8 mph6.1 kmh 29.78 in1008.5 mb 0.00 in0.0 mm 0.00 in0.0 mm 0.02 in0.5 mm
06:30 PM 50.5°F10.3°C 44.6°F7.0°C 80% Calm Calm 10.3 mph16.6 kmh 29.77 in1008.1 mb 0.00 in0.0 mm 0.00 in0.0 mm 0.02 in0.5 mm
06:45 PM 50.7°F10.4°C 45.1°F7.3°C 81% 1.1 mph WSW1.8 kmh WSW 5.8 mph9.3 kmh 29.78 in1008.5 mb 0.00 in0.0 mm 0.00 in0.0 mm 0.02 in0.5 mm
07:00 PM 49.8°F9.9°C 44.2°F6.8°C 81% 2.2 mph SSW3.5 kmh SSW 2.5 mph4.0 kmh 29.79 in1008.8 mb 0.00 in0.0 mm 0.00 in0.0 mm 0.02 in0.5 mm
07:15 PM 50.9°F10.5°C 45.6°F7.6°C 82% 3.6 mph S5.8 kmh S 7.4 mph11.9 kmh 29.79 in1008.8 mb 0.00 in0.0 mm 0.00 in0.0 mm 0.02 in0.5 mm
07:30 PM 51.4°F10.8°C 45.5°F7.5°C 80% 10.1 mph SW16.3 kmh SW 15.9 mph25.6 kmh 29.78 in1008.5 mb 0.00 in0.0 mm 0.00 in0.0 mm 0.02 in0.5 mm
07:45 PM 51.6°F10.9°C 45.3°F7.4°C 79% 4.0 mph WSW6.4 kmh WSW 11.9 mph19.2 kmh 29.79 in1008.8 mb 0.00 in0.0 mm 0.00 in0.0 mm 0.02 in0.5 mm
08:00 PM 50.9°F10.5°C 44.6°F7.0°C 79% 5.1 mph SSW8.2 kmh SSW 8.7 mph14.0 kmh 29.79 in1008.8 mb 0.00 in0.0 mm 0.00 in0.0 mm 0.02 in0.5 mm
08:15 PM 50.0°F10.0°C 43.7°F6.5°C 79% 2.5 mph SSW4.0 kmh SSW 3.4 mph5.5 kmh 29.79 in1008.8 mb 0.00 in0.0 mm 0.00 in0.0 mm 0.02 in0.5 mm
08:30 PM 48.9°F9.4°C 43.3°F6.3°C 81% 1.3 mph SW2.1 kmh SW 5.4 mph8.7 kmh 29.78 in1008.5 mb 0.00 in0.0 mm 0.00 in0.0 mm 0.02 in0.5 mm
08:45 PM 48.7°F9.3°C 43.4°F6.3°C 82% Calm Calm 3.6 mph5.8 kmh 29.79 in1008.8 mb 0.00 in0.0 mm 0.00 in0.0 mm 0.02 in0.5 mm
09:00 PM 48.0°F8.9°C 43.1°F6.2°C 83% 1.3 mph SSW2.1 kmh SSW 4.3 mph6.9 kmh 29.79 in1008.8 mb 0.00 in0.0 mm 0.00 in0.0 mm 0.02 in0.5 mm
09:15 PM 47.7°F8.7°C 43.2°F6.2°C 84% 2.5 mph SW4.0 kmh SW 5.6 mph9.0 kmh 29.78 in1008.5 mb 0.00 in0.0 mm 0.00 in0.0 mm 0.02 in0.5 mm
09:30 PM 48.2°F9.0°C 43.6°F6.4°C 84% 3.6 mph SW5.8 kmh SW 5.1 mph8.2 kmh 29.78 in1008.5 mb 0.00 in0.0 mm 0.00 in0.0 mm 0.02 in0.5 mm
09:45 PM 47.8°F8.8°C 42.9°F6.1°C 83% Calm Calm 2.9 mph4.7 kmh 29.77 in1008.1 mb 0.00 in0.0 mm 0.00 in0.0 mm 0.02 in0.5 mm
10:00 PM 48.0°F8.9°C 43.1°F6.2°C 83% 2.7 mph SW4.3 kmh SW 6.9 mph11.1 kmh 29.77 in1008.1 mb 0.00 in0.0 mm 0.00 in0.0 mm 0.02 in0.5 mm
10:15 PM 45.7°F7.6°C 41.1°F5.1°C 84% 2.0 mph SSW3.2 kmh SSW 4.9 mph7.9 kmh 29.77 in1008.1 mb 0.00 in0.0 mm 0.00 in0.0 mm 0.02 in0.5 mm
10:30 PM 46.2°F7.9°C 41.7°F5.4°C 84% Calm Calm 3.8 mph6.1 kmh 29.77 in1008.1 mb 0.00 in0.0 mm 0.00 in0.0 mm 0.02 in0.5 mm
10:45 PM 46.4°F8.0°C 42.2°F5.7°C 85% Calm Calm 4.3 mph6.9 kmh 29.77 in1008.1 mb 0.00 in0.0 mm 0.00 in0.0 mm 0.02 in0.5 mm
11:00 PM 47.1°F8.4°C 43.2°F6.2°C 86% 1.8 mph W2.9 kmh W 6.0 mph9.7 kmh 29.78 in1008.5 mb 0.00 in0.0 mm 0.00 in0.0 mm 0.02 in0.5 mm
11:15 PM 46.9°F8.3°C 43.0°F6.1°C 86% Calm Calm 1.6 mph2.6 kmh 29.78 in1008.5 mb 0.00 in0.0 mm 0.00 in0.0 mm 0.02 in0.5 mm
11:30 PM 47.1°F8.4°C 43.2°F6.2°C 86% Calm Calm 3.6 mph5.8 kmh 29.78 in1008.5 mb 0.00 in0.0 mm 0.00 in0.0 mm 0.02 in0.5 mm
11:45 PM 46.6°F8.1°C 42.9°F6.1°C 87% Calm Calm 2.0 mph3.2 kmh 29.79 in1008.8 mb 0.00 in0.0 mm 0.00 in0.0 mm 0.02 in0.5 mm